sensor_id;sensor_type;location;lat;lon;timestamp;P1;durP1;ratioP1;P2;durP2;ratioP2
73938;SDS011;62291;47.554;8.504;2023-09-12T00:01:09;18.27;;;16.42;;
73938;SDS011;62291;47.554;8.504;2023-09-12T00:03:35;18.15;;;15.95;;
73938;SDS011;62291;47.554;8.504;2023-09-12T00:06:01;19.35;;;14.55;;
73938;SDS011;62291;47.554;8.504;2023-09-12T00:08:27;19.77;;;15.55;;
73938;SDS011;62291;47.554;8.504;2023-09-12T00:13:29;16.08;;;14.45;;
73938;SDS011;62291;47.554;8.504;2023-09-12T00:15:55;16.58;;;14.85;;
73938;SDS011;62291;47.554;8.504;2023-09-12T00:18:21;16.85;;;14.57;;
73938;SDS011;62291;47.554;8.504;2023-09-12T00:20:47;17.80;;;13.68;;
73938;SDS011;62291;47.554;8.504;2023-09-12T00:23:13;17.27;;;15.45;;
73938;SDS011;62291;47.554;8.504;2023-09-12T00:25:38;17.60;;;15.90;;
73938;SDS011;62291;47.554;8.504;2023-09-12T00:28:04;14.05;;;11.95;;
73938;SDS011;62291;47.554;8.504;2023-09-12T00:30:30;15.35;;;12.98;;
73938;SDS011;62291;47.554;8.504;2023-09-12T00:32:55;17.30;;;15.48;;
73938;SDS011;62291;47.554;8.504;2023-09-12T00:35:21;16.70;;;14.95;;
73938;SDS011;62291;47.554;8.504;2023-09-12T00:37:46;15.35;;;13.85;;
73938;SDS011;62291;47.554;8.504;2023-09-12T00:40:12;17.25;;;15.45;;
73938;SDS011;62291;47.554;8.504;2023-09-12T00:42:38;18.65;;;16.27;;
73938;SDS011;62291;47.554;8.504;2023-09-12T00:45:04;18.75;;;16.40;;
73938;SDS011;62291;47.554;8.504;2023-09-12T00:47:29;33.72;;;19.92;;
73938;SDS011;62291;47.554;8.504;2023-09-12T00:49:56;28.75;;;20.13;;
73938;SDS011;62291;47.554;8.504;2023-09-12T00:52:26;23.60;;;19.00;;
73938;SDS011;62291;47.554;8.504;2023-09-12T00:54:54;20.88;;;18.27;;
73938;SDS011;62291;47.554;8.504;2023-09-12T00:57:21;22.45;;;18.30;;
73938;SDS011;62291;47.554;8.504;2023-09-12T00:59:47;20.33;;;18.23;;
73938;SDS011;62291;47.554;8.504;2023-09-12T01:02:14;22.73;;;19.20;;
73938;SDS011;62291;47.554;8.504;2023-09-12T01:04:40;21.88;;;19.55;;
73938;SDS011;62291;47.554;8.504;2023-09-12T01:07:07;19.33;;;17.05;;
73938;SDS011;62291;47.554;8.504;2023-09-12T01:09:33;18.65;;;15.73;;
73938;SDS011;62291;47.554;8.504;2023-09-12T01:11:59;19.55;;;17.10;;
73938;SDS011;62291;47.554;8.504;2023-09-12T01:14:28;22.88;;;18.77;;
73938;SDS011;62291;47.554;8.504;2023-09-12T01:16:54;26.25;;;18.13;;
73938;SDS011;62291;47.554;8.504;2023-09-12T01:19:20;17.23;;;15.48;;
73938;SDS011;62291;47.554;8.504;2023-09-12T01:27:46;19.13;;;16.98;;
73938;SDS011;62291;47.554;8.504;2023-09-12T01:30:17;20.17;;;17.10;;
73938;SDS011;62291;47.554;8.504;2023-09-12T01:32:45;18.77;;;16.70;;
73938;SDS011;62291;47.554;8.504;2023-09-12T01:35:12;22.75;;;16.95;;
73938;SDS011;62291;47.554;8.504;2023-09-12T01:37:38;19.88;;;17.63;;
73938;SDS011;62291;47.554;8.504;2023-09-12T01:40:03;28.00;;;22.42;;
73938;SDS011;62291;47.554;8.504;2023-09-12T01:42:30;31.63;;;23.13;;
73938;SDS011;62291;47.554;8.504;2023-09-12T01:45:01;22.98;;;18.05;;
73938;SDS011;62291;47.554;8.504;2023-09-12T01:47:28;22.20;;;18.73;;
73938;SDS011;62291;47.554;8.504;2023-09-12T01:49:55;26.92;;;20.75;;
73938;SDS011;62291;47.554;8.504;2023-09-12T01:52:23;19.42;;;17.30;;
73938;SDS011;62291;47.554;8.504;2023-09-12T01:54:50;30.20;;;22.40;;
73938;SDS011;62291;47.554;8.504;2023-09-12T01:57:18;23.27;;;19.23;;
73938;SDS011;62291;47.554;8.504;2023-09-12T01:59:47;24.92;;;19.15;;
73938;SDS011;62291;47.554;8.504;2023-09-12T02:02:17;23.00;;;19.50;;
73938;SDS011;62291;47.554;8.504;2023-09-12T02:04:47;32.33;;;24.90;;
73938;SDS011;62291;47.554;8.504;2023-09-12T02:07:27;28.00;;;20.58;;
73938;SDS011;62291;47.554;8.504;2023-09-12T02:09:57;22.38;;;19.98;;
73938;SDS011;62291;47.554;8.504;2023-09-12T02:12:23;29.83;;;21.48;;
73938;SDS011;62291;47.554;8.504;2023-09-12T02:14:48;24.25;;;21.63;;
73938;SDS011;62291;47.554;8.504;2023-09-12T02:17:14;24.63;;;21.52;;
73938;SDS011;62291;47.554;8.504;2023-09-12T02:19:40;24.38;;;21.77;;
73938;SDS011;62291;47.554;8.504;2023-09-12T02:22:05;25.17;;;21.38;;
73938;SDS011;62291;47.554;8.504;2023-09-12T02:24:33;25.88;;;22.85;;
73938;SDS011;62291;47.554;8.504;2023-09-12T02:27:00;26.10;;;21.38;;
73938;SDS011;62291;47.554;8.504;2023-09-12T02:29:25;25.50;;;21.42;;
73938;SDS011;62291;47.554;8.504;2023-09-12T02:31:51;29.38;;;24.02;;
73938;SDS011;62291;47.554;8.504;2023-09-12T02:34:17;20.55;;;17.10;;
73938;SDS011;62291;47.554;8.504;2023-09-12T02:36:42;18.20;;;16.38;;
73938;SDS011;62291;47.554;8.504;2023-09-12T02:39:08;21.00;;;18.67;;
73938;SDS011;62291;47.554;8.504;2023-09-12T02:41:33;23.48;;;18.23;;
73938;SDS011;62291;47.554;8.504;2023-09-12T02:43:59;39.70;;;26.20;;
73938;SDS011;62291;47.554;8.504;2023-09-12T02:46:25;24.38;;;19.42;;
73938;SDS011;62291;47.554;8.504;2023-09-12T02:48:50;19.75;;;17.73;;
73938;SDS011;62291;47.554;8.504;2023-09-12T02:51:16;22.55;;;20.20;;
73938;SDS011;62291;47.554;8.504;2023-09-12T02:53:42;27.38;;;20.77;;
73938;SDS011;62291;47.554;8.504;2023-09-12T02:56:07;24.08;;;19.88;;
73938;SDS011;62291;47.554;8.504;2023-09-12T02:58:33;29.17;;;20.83;;
73938;SDS011;62291;47.554;8.504;2023-09-12T03:00:59;24.55;;;19.33;;
73938;SDS011;62291;47.554;8.504;2023-09-12T03:03:25;30.73;;;24.08;;
73938;SDS011;62291;47.554;8.504;2023-09-12T03:05:57;21.92;;;19.33;;
73938;SDS011;62291;47.554;8.504;2023-09-12T03:08:28;22.23;;;18.27;;
73938;SDS011;62291;47.554;8.504;2023-09-12T03:10:55;21.63;;;18.92;;
73938;SDS011;62291;47.554;8.504;2023-09-12T03:13:21;27.38;;;23.08;;
73938;SDS011;62291;47.554;8.504;2023-09-12T03:15:48;27.23;;;18.10;;
73938;SDS011;62291;47.554;8.504;2023-09-12T03:18:13;20.70;;;18.48;;
73938;SDS011;62291;47.554;8.504;2023-09-12T03:20:39;23.13;;;20.73;;
73938;SDS011;62291;47.554;8.504;2023-09-12T03:23:05;26.98;;;21.80;;
73938;SDS011;62291;47.554;8.504;2023-09-12T03:25:34;25.60;;;22.08;;
73938;SDS011;62291;47.554;8.504;2023-09-12T03:28:03;27.48;;;22.73;;
73938;SDS011;62291;47.554;8.504;2023-09-12T03:30:32;28.08;;;19.95;;
73938;SDS011;62291;47.554;8.504;2023-09-12T03:32:58;21.83;;;19.20;;
73938;SDS011;62291;47.554;8.504;2023-09-12T03:35:24;20.92;;;18.70;;
73938;SDS011;62291;47.554;8.504;2023-09-12T03:37:50;23.75;;;18.13;;
73938;SDS011;62291;47.554;8.504;2023-09-12T03:40:15;21.92;;;19.42;;
73938;SDS011;62291;47.554;8.504;2023-09-12T03:42:41;24.90;;;21.15;;
73938;SDS011;62291;47.554;8.504;2023-09-12T03:45:07;22.95;;;20.45;;
73938;SDS011;62291;47.554;8.504;2023-09-12T03:47:33;23.25;;;20.85;;
73938;SDS011;62291;47.554;8.504;2023-09-12T03:49:59;25.15;;;19.60;;
73938;SDS011;62291;47.554;8.504;2023-09-12T03:52:25;23.40;;;18.83;;
73938;SDS011;62291;47.554;8.504;2023-09-12T03:54:50;25.17;;;20.17;;
73938;SDS011;62291;47.554;8.504;2023-09-12T03:57:16;23.48;;;18.95;;
73938;SDS011;62291;47.554;8.504;2023-09-12T03:59:42;21.52;;;19.25;;
73938;SDS011;62291;47.554;8.504;2023-09-12T04:02:08;35.58;;;23.55;;
73938;SDS011;62291;47.554;8.504;2023-09-12T04:04:33;21.02;;;18.75;;
73938;SDS011;62291;47.554;8.504;2023-09-12T04:06:59;20.98;;;18.17;;
73938;SDS011;62291;47.554;8.504;2023-09-12T04:09:26;34.33;;;26.77;;
73938;SDS011;62291;47.554;8.504;2023-09-12T04:11:53;25.95;;;22.30;;
73938;SDS011;62291;47.554;8.504;2023-09-12T04:14:20;22.70;;;19.65;;
73938;SDS011;62291;47.554;8.504;2023-09-12T04:16:46;24.20;;;21.27;;
73938;SDS011;62291;47.554;8.504;2023-09-12T04:19:13;25.10;;;21.80;;
73938;SDS011;62291;47.554;8.504;2023-09-12T04:21:39;24.98;;;20.70;;
73938;SDS011;62291;47.554;8.504;2023-09-12T04:24:05;24.85;;;21.17;;
73938;SDS011;62291;47.554;8.504;2023-09-12T04:26:31;31.13;;;24.92;;
73938;SDS011;62291;47.554;8.504;2023-09-12T04:28:57;245.50;;;50.85;;
73938;SDS011;62291;47.554;8.504;2023-09-12T04:31:23;25.13;;;21.13;;
73938;SDS011;62291;47.554;8.504;2023-09-12T04:33:52;22.65;;;20.25;;
73938;SDS011;62291;47.554;8.504;2023-09-12T04:36:19;54.85;;;30.20;;
73938;SDS011;62291;47.554;8.504;2023-09-12T04:38:45;23.08;;;20.13;;
73938;SDS011;62291;47.554;8.504;2023-09-12T04:41:11;26.33;;;20.25;;
73938;SDS011;62291;47.554;8.504;2023-09-12T04:43:40;25.27;;;21.95;;
73938;SDS011;62291;47.554;8.504;2023-09-12T04:46:06;26.05;;;23.25;;
73938;SDS011;62291;47.554;8.504;2023-09-12T04:48:32;31.30;;;25.58;;
73938;SDS011;62291;47.554;8.504;2023-09-12T04:50:58;28.25;;;24.10;;
73938;SDS011;62291;47.554;8.504;2023-09-12T04:53:23;22.30;;;19.98;;
73938;SDS011;62291;47.554;8.504;2023-09-12T04:55:51;22.58;;;20.17;;
73938;SDS011;62291;47.554;8.504;2023-09-12T04:58:18;23.15;;;20.45;;
73938;SDS011;62291;47.554;8.504;2023-09-12T05:00:44;23.15;;;20.52;;
73938;SDS011;62291;47.554;8.504;2023-09-12T05:03:10;22.75;;;20.05;;
73938;SDS011;62291;47.554;8.504;2023-09-12T05:05:36;23.15;;;20.58;;
73938;SDS011;62291;47.554;8.504;2023-09-12T05:08:02;21.13;;;18.90;;
73938;SDS011;62291;47.554;8.504;2023-09-12T05:10:29;24.48;;;21.90;;
73938;SDS011;62291;47.554;8.504;2023-09-12T05:12:55;35.95;;;26.27;;
73938;SDS011;62291;47.554;8.504;2023-09-12T05:15:20;35.97;;;26.67;;
73938;SDS011;62291;47.554;8.504;2023-09-12T05:17:46;42.28;;;28.88;;
73938;SDS011;62291;47.554;8.504;2023-09-12T05:20:12;25.92;;;23.23;;
73938;SDS011;62291;47.554;8.504;2023-09-12T05:22:37;27.20;;;22.50;;
73938;SDS011;62291;47.554;8.504;2023-09-12T05:25:03;25.42;;;22.33;;
73938;SDS011;62291;47.554;8.504;2023-09-12T05:27:29;20.23;;;18.27;;
73938;SDS011;62291;47.554;8.504;2023-09-12T05:29:55;22.45;;;18.10;;
73938;SDS011;62291;47.554;8.504;2023-09-12T05:32:20;20.23;;;15.77;;
73938;SDS011;62291;47.554;8.504;2023-09-12T05:34:46;18.48;;;13.15;;
73938;SDS011;62291;47.554;8.504;2023-09-12T05:37:14;19.77;;;14.52;;
73938;SDS011;62291;47.554;8.504;2023-09-12T05:39:40;15.05;;;13.40;;
73938;SDS011;62291;47.554;8.504;2023-09-12T05:42:06;17.00;;;13.43;;
73938;SDS011;62291;47.554;8.504;2023-09-12T05:44:32;14.93;;;12.45;;
73938;SDS011;62291;47.554;8.504;2023-09-12T05:46:58;13.75;;;12.10;;
73938;SDS011;62291;47.554;8.504;2023-09-12T05:49:23;15.38;;;13.82;;
73938;SDS011;62291;47.554;8.504;2023-09-12T05:51:49;16.02;;;14.48;;
73938;SDS011;62291;47.554;8.504;2023-09-12T05:54:15;17.80;;;15.50;;
73938;SDS011;62291;47.554;8.504;2023-09-12T05:56:41;19.30;;;16.08;;
73938;SDS011;62291;47.554;8.504;2023-09-12T05:59:07;16.55;;;13.60;;
73938;SDS011;62291;47.554;8.504;2023-09-12T06:01:33;17.83;;;13.25;;
73938;SDS011;62291;47.554;8.504;2023-09-12T06:03:58;32.38;;;15.18;;
73938;SDS011;62291;47.554;8.504;2023-09-12T06:06:24;30.80;;;15.40;;
73938;SDS011;62291;47.554;8.504;2023-09-12T06:08:49;16.95;;;13.15;;
73938;SDS011;62291;47.554;8.504;2023-09-12T06:11:15;18.58;;;13.75;;
73938;SDS011;62291;47.554;8.504;2023-09-12T06:13:41;26.55;;;14.35;;
73938;SDS011;62291;47.554;8.504;2023-09-12T06:16:06;17.80;;;13.80;;
73938;SDS011;62291;47.554;8.504;2023-09-12T06:18:32;18.90;;;13.68;;
73938;SDS011;62291;47.554;8.504;2023-09-12T06:20:59;19.10;;;14.45;;
73938;SDS011;62291;47.554;8.504;2023-09-12T06:23:29;20.38;;;15.57;;
73938;SDS011;62291;47.554;8.504;2023-09-12T06:25:55;21.08;;;15.90;;
73938;SDS011;62291;47.554;8.504;2023-09-12T06:28:28;17.83;;;15.40;;
73938;SDS011;62291;47.554;8.504;2023-09-12T06:30:55;16.38;;;13.95;;
73938;SDS011;62291;47.554;8.504;2023-09-12T06:33:22;17.40;;;15.63;;
73938;SDS011;62291;47.554;8.504;2023-09-12T06:35:51;18.40;;;15.60;;
73938;SDS011;62291;47.554;8.504;2023-09-12T06:38:18;15.80;;;14.23;;
73938;SDS011;62291;47.554;8.504;2023-09-12T06:40:44;15.65;;;14.02;;
73938;SDS011;62291;47.554;8.504;2023-09-12T06:43:12;16.77;;;14.80;;
73938;SDS011;62291;47.554;8.504;2023-09-12T06:45:38;15.88;;;14.07;;
73938;SDS011;62291;47.554;8.504;2023-09-12T06:48:05;18.50;;;12.88;;
73938;SDS011;62291;47.554;8.504;2023-09-12T06:50:31;15.80;;;12.85;;
73938;SDS011;62291;47.554;8.504;2023-09-12T06:52:57;14.32;;;13.02;;
73938;SDS011;62291;47.554;8.504;2023-09-12T06:55:24;16.63;;;14.02;;
73938;SDS011;62291;47.554;8.504;2023-09-12T06:57:49;15.15;;;13.55;;
73938;SDS011;62291;47.554;8.504;2023-09-12T07:00:15;17.00;;;15.07;;
73938;SDS011;62291;47.554;8.504;2023-09-12T07:05:32;16.10;;;14.30;;
73938;SDS011;62291;47.554;8.504;2023-09-12T07:08:00;15.15;;;13.55;;
73938;SDS011;62291;47.554;8.504;2023-09-12T07:10:26;16.08;;;14.57;;
73938;SDS011;62291;47.554;8.504;2023-09-12T07:12:52;15.85;;;14.45;;
73938;SDS011;62291;47.554;8.504;2023-09-12T07:15:18;17.00;;;14.23;;
73938;SDS011;62291;47.554;8.504;2023-09-12T07:17:44;15.80;;;14.20;;
73938;SDS011;62291;47.554;8.504;2023-09-12T07:20:10;18.10;;;16.30;;
73938;SDS011;62291;47.554;8.504;2023-09-12T07:22:37;17.45;;;14.80;;
73938;SDS011;62291;47.554;8.504;2023-09-12T07:25:04;17.80;;;16.15;;
73938;SDS011;62291;47.554;8.504;2023-09-12T07:27:31;18.02;;;16.42;;
73938;SDS011;62291;47.554;8.504;2023-09-12T07:29:56;19.83;;;17.75;;
73938;SDS011;62291;47.554;8.504;2023-09-12T07:32:22;19.48;;;17.40;;
73938;SDS011;62291;47.554;8.504;2023-09-12T07:34:49;17.45;;;15.68;;
73938;SDS011;62291;47.554;8.504;2023-09-12T07:37:15;17.88;;;16.08;;
73938;SDS011;62291;47.554;8.504;2023-09-12T07:39:40;18.15;;;16.42;;
73938;SDS011;62291;47.554;8.504;2023-09-12T07:42:06;18.67;;;16.77;;
73938;SDS011;62291;47.554;8.504;2023-09-12T07:44:32;18.17;;;16.30;;
73938;SDS011;62291;47.554;8.504;2023-09-12T07:46:57;19.98;;;15.30;;
73938;SDS011;62291;47.554;8.504;2023-09-12T07:49:23;15.45;;;13.98;;
73938;SDS011;62291;47.554;8.504;2023-09-12T07:51:51;18.10;;;15.75;;
73938;SDS011;62291;47.554;8.504;2023-09-12T07:54:17;16.05;;;14.55;;
73938;SDS011;62291;47.554;8.504;2023-09-12T07:56:43;16.38;;;14.52;;
73938;SDS011;62291;47.554;8.504;2023-09-12T07:59:08;17.02;;;15.30;;
73938;SDS011;62291;47.554;8.504;2023-09-12T08:01:36;16.25;;;14.15;;
73938;SDS011;62291;47.554;8.504;2023-09-12T08:04:01;16.30;;;14.82;;
73938;SDS011;62291;47.554;8.504;2023-09-12T08:06:27;15.95;;;13.93;;
73938;SDS011;62291;47.554;8.504;2023-09-12T08:08:53;16.48;;;14.68;;
73938;SDS011;62291;47.554;8.504;2023-09-12T08:11:19;18.10;;;14.15;;
73938;SDS011;62291;47.554;8.504;2023-09-12T08:13:48;19.17;;;13.63;;
73938;SDS011;62291;47.554;8.504;2023-09-12T08:16:14;17.42;;;13.32;;
73938;SDS011;62291;47.554;8.504;2023-09-12T08:18:40;16.00;;;13.30;;
73938;SDS011;62291;47.554;8.504;2023-09-12T08:21:06;16.23;;;13.48;;
73938;SDS011;62291;47.554;8.504;2023-09-12T08:23:32;16.17;;;13.95;;
73938;SDS011;62291;47.554;8.504;2023-09-12T08:25:58;16.25;;;13.70;;
73938;SDS011;62291;47.554;8.504;2023-09-12T08:28:24;18.13;;;13.48;;
73938;SDS011;62291;47.554;8.504;2023-09-12T08:30:50;18.85;;;13.38;;
73938;SDS011;62291;47.554;8.504;2023-09-12T08:33:17;13.95;;;12.38;;
73938;SDS011;62291;47.554;8.504;2023-09-12T08:35:42;23.50;;;13.50;;
73938;SDS011;62291;47.554;8.504;2023-09-12T08:38:08;22.98;;;12.68;;
73938;SDS011;62291;47.554;8.504;2023-09-12T08:40:34;20.10;;;13.60;;
73938;SDS011;62291;47.554;8.504;2023-09-12T08:43:00;18.70;;;12.50;;
73938;SDS011;62291;47.554;8.504;2023-09-12T08:45:28;26.58;;;12.77;;
73938;SDS011;62291;47.554;8.504;2023-09-12T08:47:55;26.98;;;13.38;;
73938;SDS011;62291;47.554;8.504;2023-09-12T08:50:23;21.67;;;12.45;;
73938;SDS011;62291;47.554;8.504;2023-09-12T08:52:49;28.38;;;13.23;;
73938;SDS011;62291;47.554;8.504;2023-09-12T08:55:16;18.42;;;13.13;;
73938;SDS011;62291;47.554;8.504;2023-09-12T08:57:43;18.65;;;13.20;;
73938;SDS011;62291;47.554;8.504;2023-09-12T09:00:13;17.38;;;13.35;;
73938;SDS011;62291;47.554;8.504;2023-09-12T09:02:40;19.38;;;13.60;;
73938;SDS011;62291;47.554;8.504;2023-09-12T09:05:06;19.42;;;12.82;;
73938;SDS011;62291;47.554;8.504;2023-09-12T09:07:37;17.73;;;13.07;;
73938;SDS011;62291;47.554;8.504;2023-09-12T09:10:04;17.45;;;13.82;;
73938;SDS011;62291;47.554;8.504;2023-09-12T09:12:31;18.70;;;12.48;;
73938;SDS011;62291;47.554;8.504;2023-09-12T09:14:58;15.13;;;13.15;;
73938;SDS011;62291;47.554;8.504;2023-09-12T09:17:23;15.35;;;12.05;;
73938;SDS011;62291;47.554;8.504;2023-09-12T09:19:49;14.40;;;11.88;;
73938;SDS011;62291;47.554;8.504;2023-09-12T09:22:15;18.48;;;12.07;;
73938;SDS011;62291;47.554;8.504;2023-09-12T09:24:41;15.07;;;11.55;;
73938;SDS011;62291;47.554;8.504;2023-09-12T09:27:06;13.30;;;11.88;;
73938;SDS011;62291;47.554;8.504;2023-09-12T09:29:32;13.50;;;12.10;;
73938;SDS011;62291;47.554;8.504;2023-09-12T09:34:42;15.10;;;13.45;;
73938;SDS011;62291;47.554;8.504;2023-09-12T09:37:08;17.42;;;12.88;;
73938;SDS011;62291;47.554;8.504;2023-09-12T09:39:34;14.00;;;12.70;;
73938;SDS011;62291;47.554;8.504;2023-09-12T09:42:00;15.85;;;12.60;;
73938;SDS011;62291;47.554;8.504;2023-09-12T09:44:26;18.83;;;13.40;;
73938;SDS011;62291;47.554;8.504;2023-09-12T09:47:02;15.82;;;13.32;;
73938;SDS011;62291;47.554;8.504;2023-09-12T09:49:30;15.35;;;12.45;;
73938;SDS011;62291;47.554;8.504;2023-09-12T09:51:59;14.63;;;11.98;;
73938;SDS011;62291;47.554;8.504;2023-09-12T09:54:28;14.55;;;13.05;;
73938;SDS011;62291;47.554;8.504;2023-09-12T09:56:56;16.00;;;14.38;;
73938;SDS011;62291;47.554;8.504;2023-09-12T09:59:24;17.98;;;14.15;;
73938;SDS011;62291;47.554;8.504;2023-09-12T10:01:51;14.65;;;13.18;;
73938;SDS011;62291;47.554;8.504;2023-09-12T10:04:23;16.60;;;14.70;;
73938;SDS011;62291;47.554;8.504;2023-09-12T10:06:49;18.48;;;14.55;;
73938;SDS011;62291;47.554;8.504;2023-09-12T10:09:15;18.58;;;16.73;;
73938;SDS011;62291;47.554;8.504;2023-09-12T10:11:43;20.08;;;16.45;;
73938;SDS011;62291;47.554;8.504;2023-09-12T10:14:12;20.95;;;18.77;;
73938;SDS011;62291;47.554;8.504;2023-09-12T10:16:44;18.73;;;16.58;;
73938;SDS011;62291;47.554;8.504;2023-09-12T10:19:16;21.15;;;19.15;;
73938;SDS011;62291;47.554;8.504;2023-09-12T10:22:20;28.00;;;20.17;;
73938;SDS011;62291;47.554;8.504;2023-09-12T10:24:50;23.73;;;21.25;;
73938;SDS011;62291;47.554;8.504;2023-09-12T10:27:20;21.77;;;19.50;;
73938;SDS011;62291;47.554;8.504;2023-09-12T10:29:49;20.70;;;18.63;;
73938;SDS011;62291;47.554;8.504;2023-09-12T10:32:18;20.40;;;18.55;;
73938;SDS011;62291;47.554;8.504;2023-09-12T10:34:48;20.95;;;18.92;;
73938;SDS011;62291;47.554;8.504;2023-09-12T10:37:15;20.05;;;17.90;;
73938;SDS011;62291;47.554;8.504;2023-09-12T10:39:42;18.50;;;16.65;;
73938;SDS011;62291;47.554;8.504;2023-09-12T10:42:08;20.17;;;17.67;;
73938;SDS011;62291;47.554;8.504;2023-09-12T10:44:35;18.85;;;17.25;;
73938;SDS011;62291;47.554;8.504;2023-09-12T10:47:01;22.17;;;16.55;;
73938;SDS011;62291;47.554;8.504;2023-09-12T10:49:29;17.90;;;15.57;;
73938;SDS011;62291;47.554;8.504;2023-09-12T10:51:55;16.27;;;14.10;;
73938;SDS011;62291;47.554;8.504;2023-09-12T10:54:23;17.00;;;15.55;;
73938;SDS011;62291;47.554;8.504;2023-09-12T10:57:10;18.25;;;15.13;;
73938;SDS011;62291;47.554;8.504;2023-09-12T11:00:08;17.08;;;15.27;;
73938;SDS011;62291;47.554;8.504;2023-09-12T11:02:27;17.30;;;15.80;;
73938;SDS011;62291;47.554;8.504;2023-09-12T11:04:55;18.50;;;16.55;;
73938;SDS011;62291;47.554;8.504;2023-09-12T11:12:40;17.58;;;15.88;;
73938;SDS011;62291;47.554;8.504;2023-09-12T11:15:07;16.05;;;14.55;;
73938;SDS011;62291;47.554;8.504;2023-09-12T11:17:37;14.88;;;13.60;;
73938;SDS011;62291;47.554;8.504;2023-09-12T11:20:03;16.30;;;14.50;;
73938;SDS011;62291;47.554;8.504;2023-09-12T11:22:36;16.63;;;15.02;;
73938;SDS011;62291;47.554;8.504;2023-09-12T11:25:04;18.10;;;14.50;;
73938;SDS011;62291;47.554;8.504;2023-09-12T11:30:15;11.85;;;10.75;;
73938;SDS011;62291;47.554;8.504;2023-09-12T11:32:43;11.73;;;10.65;;
73938;SDS011;62291;47.554;8.504;2023-09-12T11:35:11;11.57;;;10.23;;
73938;SDS011;62291;47.554;8.504;2023-09-12T11:37:38;12.27;;;10.57;;
73938;SDS011;62291;47.554;8.504;2023-09-12T11:40:23;12.95;;;11.48;;
73938;SDS011;62291;47.554;8.504;2023-09-12T11:42:50;14.73;;;13.43;;
73938;SDS011;62291;47.554;8.504;2023-09-12T11:45:17;14.60;;;13.20;;
73938;SDS011;62291;47.554;8.504;2023-09-12T11:47:45;14.05;;;12.68;;
73938;SDS011;62291;47.554;8.504;2023-09-12T11:53:03;17.13;;;13.70;;
73938;SDS011;62291;47.554;8.504;2023-09-12T11:55:37;13.77;;;12.48;;
73938;SDS011;62291;47.554;8.504;2023-09-12T11:58:11;13.15;;;10.98;;
73938;SDS011;62291;47.554;8.504;2023-09-12T12:00:43;10.77;;;9.68;;
73938;SDS011;62291;47.554;8.504;2023-09-12T12:03:13;11.60;;;10.15;;
73938;SDS011;62291;47.554;8.504;2023-09-12T12:05:39;15.30;;;11.60;;
73938;SDS011;62291;47.554;8.504;2023-09-12T12:08:07;13.63;;;12.20;;
73938;SDS011;62291;47.554;8.504;2023-09-12T12:10:33;12.93;;;10.50;;
73938;SDS011;62291;47.554;8.504;2023-09-12T12:12:59;14.52;;;10.10;;
73938;SDS011;62291;47.554;8.504;2023-09-12T12:15:27;13.13;;;11.80;;
73938;SDS011;62291;47.554;8.504;2023-09-12T12:17:56;12.18;;;10.85;;
73938;SDS011;62291;47.554;8.504;2023-09-12T12:20:22;15.40;;;11.40;;
73938;SDS011;62291;47.554;8.504;2023-09-12T12:22:48;12.02;;;10.82;;
73938;SDS011;62291;47.554;8.504;2023-09-12T12:25:17;13.32;;;10.90;;
73938;SDS011;62291;47.554;8.504;2023-09-12T12:27:43;13.93;;;11.57;;
73938;SDS011;62291;47.554;8.504;2023-09-12T12:30:10;17.85;;;12.00;;
73938;SDS011;62291;47.554;8.504;2023-09-12T12:32:44;13.25;;;11.13;;
73938;SDS011;62291;47.554;8.504;2023-09-12T12:35:18;14.18;;;11.10;;
73938;SDS011;62291;47.554;8.504;2023-09-12T12:37:45;15.55;;;10.32;;
73938;SDS011;62291;47.554;8.504;2023-09-12T12:40:12;12.27;;;10.25;;
73938;SDS011;62291;47.554;8.504;2023-09-12T12:42:39;12.90;;;10.20;;
73938;SDS011;62291;47.554;8.504;2023-09-12T12:47:38;11.10;;;10.00;;
73938;SDS011;62291;47.554;8.504;2023-09-12T12:50:07;13.40;;;10.20;;
73938;SDS011;62291;47.554;8.504;2023-09-12T12:52:37;13.35;;;10.77;;
73938;SDS011;62291;47.554;8.504;2023-09-12T12:55:06;12.90;;;10.40;;
73938;SDS011;62291;47.554;8.504;2023-09-12T12:57:38;12.43;;;10.50;;
73938;SDS011;62291;47.554;8.504;2023-09-12T13:00:06;14.37;;;10.43;;
73938;SDS011;62291;47.554;8.504;2023-09-12T13:02:32;13.68;;;11.45;;
73938;SDS011;62291;47.554;8.504;2023-09-12T13:04:58;11.57;;;9.98;;
73938;SDS011;62291;47.554;8.504;2023-09-12T13:07:24;11.30;;;10.20;;
73938;SDS011;62291;47.554;8.504;2023-09-12T13:09:49;12.02;;;10.85;;
73938;SDS011;62291;47.554;8.504;2023-09-12T13:12:15;11.38;;;10.30;;
73938;SDS011;62291;47.554;8.504;2023-09-12T13:14:42;12.35;;;9.75;;
73938;SDS011;62291;47.554;8.504;2023-09-12T13:17:09;11.43;;;10.32;;
73938;SDS011;62291;47.554;8.504;2023-09-12T13:19:35;12.85;;;10.45;;
73938;SDS011;62291;47.554;8.504;2023-09-12T13:22:01;11.55;;;10.10;;
73938;SDS011;62291;47.554;8.504;2023-09-12T13:24:27;10.93;;;9.50;;
73938;SDS011;62291;47.554;8.504;2023-09-12T13:26:53;9.88;;;8.38;;
73938;SDS011;62291;47.554;8.504;2023-09-12T13:29:19;10.43;;;9.13;;
73938;SDS011;62291;47.554;8.504;2023-09-12T13:31:44;12.23;;;9.75;;
73938;SDS011;62291;47.554;8.504;2023-09-12T13:34:10;11.63;;;9.80;;
73938;SDS011;62291;47.554;8.504;2023-09-12T13:36:36;10.27;;;8.68;;
73938;SDS011;62291;47.554;8.504;2023-09-12T13:39:02;11.60;;;8.02;;
73938;SDS011;62291;47.554;8.504;2023-09-12T13:41:29;10.88;;;7.97;;
73938;SDS011;62291;47.554;8.504;2023-09-12T13:43:54;10.75;;;7.82;;
73938;SDS011;62291;47.554;8.504;2023-09-12T13:46:20;11.00;;;8.00;;
73938;SDS011;62291;47.554;8.504;2023-09-12T13:48:46;9.48;;;8.38;;
73938;SDS011;62291;47.554;8.504;2023-09-12T13:51:11;10.18;;;7.63;;
73938;SDS011;62291;47.554;8.504;2023-09-12T13:53:38;9.98;;;8.05;;
73938;SDS011;62291;47.554;8.504;2023-09-12T13:56:04;10.77;;;8.15;;
73938;SDS011;62291;47.554;8.504;2023-09-12T13:58:31;10.07;;;7.78;;
73938;SDS011;62291;47.554;8.504;2023-09-12T14:00:58;10.18;;;8.05;;
73938;SDS011;62291;47.554;8.504;2023-09-12T14:03:23;11.80;;;7.95;;
73938;SDS011;62291;47.554;8.504;2023-09-12T14:05:49;14.77;;;8.43;;
73938;SDS011;62291;47.554;8.504;2023-09-12T14:08:15;12.27;;;7.97;;
73938;SDS011;62291;47.554;8.504;2023-09-12T14:10:42;13.63;;;7.97;;
73938;SDS011;62291;47.554;8.504;2023-09-12T14:13:08;11.88;;;8.00;;
73938;SDS011;62291;47.554;8.504;2023-09-12T14:15:34;17.02;;;7.85;;
73938;SDS011;62291;47.554;8.504;2023-09-12T14:17:59;11.65;;;7.82;;
73938;SDS011;62291;47.554;8.504;2023-09-12T14:20:25;8.80;;;7.65;;
73938;SDS011;62291;47.554;8.504;2023-09-12T14:22:50;8.45;;;7.65;;
73938;SDS011;62291;47.554;8.504;2023-09-12T14:25:16;9.50;;;7.65;;
73938;SDS011;62291;47.554;8.504;2023-09-12T14:27:42;9.93;;;7.85;;
73938;SDS011;62291;47.554;8.504;2023-09-12T14:30:09;12.85;;;8.00;;
73938;SDS011;62291;47.554;8.504;2023-09-12T14:32:36;11.93;;;8.18;;
73938;SDS011;62291;47.554;8.504;2023-09-12T14:35:02;8.52;;;7.60;;
73938;SDS011;62291;47.554;8.504;2023-09-12T14:37:29;17.40;;;8.50;;
73938;SDS011;62291;47.554;8.504;2023-09-12T14:39:54;11.52;;;8.98;;
73938;SDS011;62291;47.554;8.504;2023-09-12T14:42:21;10.55;;;8.63;;
73938;SDS011;62291;47.554;8.504;2023-09-12T14:44:47;13.82;;;9.00;;
73938;SDS011;62291;47.554;8.504;2023-09-12T14:47:13;10.55;;;8.85;;
73938;SDS011;62291;47.554;8.504;2023-09-12T14:49:38;12.88;;;8.50;;